createdAt,value
2022-10-13T00:00:05.908Z,11.29
2022-10-13T00:02:32.280Z,11.25
2022-10-13T00:04:58.605Z,11.28
2022-10-13T00:07:25.092Z,11.25
2022-10-13T00:09:51.491Z,11.28
2022-10-13T00:12:18.207Z,11.31
2022-10-13T00:14:44.826Z,11.30
2022-10-13T00:17:11.309Z,11.35
2022-10-13T00:19:37.650Z,11.32
2022-10-13T00:22:04.185Z,11.30
2022-10-13T00:24:30.603Z,11.37
2022-10-13T00:26:59.787Z,11.36
2022-10-13T00:29:26.126Z,11.40
2022-10-13T00:31:52.559Z,11.38
2022-10-13T00:34:18.953Z,11.39
2022-10-13T00:36:45.337Z,11.40
2022-10-13T00:39:12.499Z,11.35
2022-10-13T00:41:38.970Z,11.39
2022-10-13T00:44:29.478Z,11.36
2022-10-13T00:46:56.102Z,11.35
2022-10-13T00:49:22.491Z,11.31
2022-10-13T00:51:50.152Z,11.21
2022-10-13T00:54:22.096Z,11.16
2022-10-13T00:56:51.233Z,11.16
2022-10-13T00:59:26.554Z,11.11
2022-10-13T01:01:53.340Z,10.93
2022-10-13T01:04:23.186Z,10.92
2022-10-13T01:06:50.202Z,10.96
2022-10-13T01:09:16.621Z,10.90
2022-10-13T01:12:26.244Z,10.81
2022-10-13T01:15:29.507Z,10.79
2022-10-13T01:18:25.129Z,10.65
2022-10-13T01:21:00.286Z,10.53
2022-10-13T01:23:44.562Z,10.46
2022-10-13T01:26:56.847Z,10.34
2022-10-13T01:29:44.725Z,10.21
2022-10-13T01:32:35.194Z,10.11
2022-10-13T01:35:07.332Z,9.94
2022-10-13T01:37:42.503Z,9.86
2022-10-13T01:40:40.275Z,9.79
2022-10-13T01:43:15.904Z,9.66
2022-10-13T01:45:59.046Z,9.51
2022-10-13T01:48:27.968Z,9.37
2022-10-13T01:50:57.481Z,9.33
2022-10-13T01:53:24.450Z,9.20
2022-10-13T01:55:56.869Z,9.08
2022-10-13T01:58:27.353Z,9.06
2022-10-13T02:01:04.298Z,8.98
2022-10-13T02:03:51.018Z,8.91
2022-10-13T02:06:24.869Z,8.79
2022-10-13T02:09:01.479Z,8.73
2022-10-13T02:11:28.565Z,8.71
2022-10-13T02:14:12.767Z,8.69
2022-10-13T02:16:43.272Z,8.59
2022-10-13T02:19:12.720Z,8.59
2022-10-13T02:21:39.514Z,8.49
2022-10-13T02:24:07.262Z,8.50
2022-10-13T02:26:35.220Z,8.43
2022-10-13T02:29:11.648Z,8.43
2022-10-13T02:31:39.488Z,8.45
2022-10-13T02:34:06.346Z,8.44
2022-10-13T02:36:32.946Z,8.44
2022-10-13T02:38:59.484Z,8.50
2022-10-13T02:41:26.276Z,8.46
2022-10-13T02:43:52.683Z,8.58
2022-10-13T02:46:19.115Z,8.56
2022-10-13T02:48:45.463Z,8.63
2022-10-13T02:51:12.072Z,8.69
2022-10-13T02:53:38.441Z,8.78
2022-10-13T02:56:05.001Z,8.91
2022-10-13T02:58:31.337Z,8.98
2022-10-13T03:01:08.467Z,9.06
2022-10-13T03:03:35.823Z,9.15
2022-10-13T03:06:02.761Z,9.24
2022-10-13T03:08:29.387Z,9.32
2022-10-13T03:10:56.039Z,9.38
2022-10-13T03:13:22.539Z,9.47
2022-10-13T03:15:49.075Z,9.49
2022-10-13T03:18:15.601Z,9.60
2022-10-13T03:20:44.846Z,9.63
2022-10-13T03:23:11.291Z,9.65
2022-10-13T03:25:38.259Z,9.73
2022-10-13T03:28:04.770Z,9.73
2022-10-13T03:30:31.236Z,9.76
2022-10-13T03:32:57.616Z,9.78
2022-10-13T03:35:24.061Z,9.79
2022-10-13T03:37:50.425Z,9.79
2022-10-13T03:40:17.195Z,9.80
2022-10-13T03:42:43.604Z,9.72
2022-10-13T03:45:10.684Z,9.83
2022-10-13T03:47:37.476Z,9.81
2022-10-13T03:50:05.565Z,9.85
2022-10-13T03:52:31.993Z,9.85
2022-10-13T03:54:58.568Z,9.86
2022-10-13T03:57:24.997Z,9.87
2022-10-13T03:59:51.704Z,9.88
2022-10-13T04:02:18.380Z,9.87
2022-10-13T04:04:44.995Z,9.91
2022-10-13T04:07:11.330Z,10.01
2022-10-13T04:09:37.680Z,9.96
2022-10-13T04:12:05.337Z,10.03
2022-10-13T04:14:31.689Z,10.05
2022-10-13T04:16:58.247Z,10.06
2022-10-13T04:19:25.186Z,10.15
2022-10-13T04:21:51.651Z,10.14
2022-10-13T04:24:18.237Z,10.20
2022-10-13T04:26:46.204Z,10.23
2022-10-13T04:29:12.901Z,10.26
2022-10-13T04:31:40.175Z,10.23
2022-10-13T04:34:07.718Z,10.28
2022-10-13T04:36:34.262Z,10.27
2022-10-13T04:39:00.651Z,10.24
2022-10-13T04:41:27.352Z,10.24
2022-10-13T04:43:54.388Z,10.27
2022-10-13T04:46:23.758Z,10.26
2022-10-13T04:48:50.319Z,10.19
2022-10-13T04:51:19.964Z,10.19
2022-10-13T04:53:46.851Z,10.23
2022-10-13T04:56:16.022Z,10.23
2022-10-13T04:58:44.165Z,10.20
2022-10-13T05:01:23.639Z,10.20
2022-10-13T05:03:59.673Z,10.19
2022-10-13T05:06:28.718Z,10.16
2022-10-13T05:08:56.143Z,10.05
2022-10-13T05:11:23.115Z,10.03
2022-10-13T05:13:49.743Z,10.13
2022-10-13T05:16:18.498Z,10.12
2022-10-13T05:18:45.419Z,10.13
2022-10-13T05:21:13.579Z,10.14
2022-10-13T05:23:40.425Z,10.12
2022-10-13T05:26:10.039Z,10.15
2022-10-13T05:28:36.459Z,10.16
2022-10-13T05:31:15.623Z,10.10
2022-10-13T05:33:42.791Z,10.17
2022-10-13T05:36:12.657Z,10.26
2022-10-13T05:38:39.559Z,10.29
2022-10-13T05:41:07.994Z,10.30
2022-10-13T05:43:34.654Z,10.29
2022-10-13T05:46:01.858Z,10.37
2022-10-13T05:48:28.669Z,10.42
2022-10-13T05:50:57.499Z,10.45
2022-10-13T05:53:27.755Z,10.47
2022-10-13T05:55:55.427Z,10.62
2022-10-13T05:58:22.617Z,10.53
2022-10-13T06:00:49.374Z,10.53
2022-10-13T06:03:19.119Z,10.44
2022-10-13T06:05:47.483Z,10.54
2022-10-13T06:08:16.039Z,10.55
2022-10-13T06:10:43.372Z,10.56
2022-10-13T06:13:09.907Z,10.57
2022-10-13T06:15:36.312Z,10.60
2022-10-13T06:18:06.902Z,10.59
2022-10-13T06:20:33.271Z,10.64
2022-10-13T06:22:59.660Z,10.66
2022-10-13T06:25:26.096Z,10.62
2022-10-13T06:27:52.513Z,10.61
2022-10-13T06:30:18.876Z,10.59
2022-10-13T06:32:45.323Z,10.75
2022-10-13T06:35:11.833Z,10.77
2022-10-13T06:37:38.241Z,10.78
2022-10-13T06:40:05.515Z,10.79
2022-10-13T06:42:34.828Z,10.87
2022-10-13T06:45:01.276Z,10.94
2022-10-13T06:47:27.761Z,10.85
2022-10-13T06:49:54.360Z,10.97
2022-10-13T06:52:21.158Z,11.08
2022-10-13T06:54:48.012Z,11.15
2022-10-13T06:57:14.643Z,11.19
2022-10-13T06:59:41.072Z,11.31
2022-10-13T07:02:09.272Z,11.38
2022-10-13T07:04:35.620Z,11.31
2022-10-13T07:07:01.991Z,11.53
2022-10-13T07:09:28.577Z,11.55
2022-10-13T07:11:55.107Z,11.63
2022-10-13T07:14:21.684Z,11.81
2022-10-13T07:16:48.874Z,11.89
2022-10-13T07:19:15.258Z,11.97
2022-10-13T07:21:41.986Z,12.08
2022-10-13T07:24:14.686Z,12.25
2022-10-13T07:26:41.221Z,12.35
2022-10-13T07:29:08.012Z,12.45
2022-10-13T07:31:34.427Z,12.59
2022-10-13T07:34:01.137Z,12.69
2022-10-13T07:36:27.643Z,12.80
2022-10-13T07:38:54.021Z,12.81
2022-10-13T07:41:20.529Z,13.02
2022-10-13T07:43:46.960Z,13.10
2022-10-13T07:46:13.813Z,13.18
2022-10-13T07:48:40.336Z,13.23
2022-10-13T07:51:09.331Z,13.37
2022-10-13T07:53:36.024Z,13.40
2022-10-13T07:56:05.304Z,13.50
2022-10-13T07:58:31.781Z,13.58
2022-10-13T08:01:00.244Z,13.69
2022-10-13T08:03:27.823Z,13.72
2022-10-13T08:05:54.361Z,13.86
2022-10-13T08:08:21.701Z,13.95
2022-10-13T08:10:48.424Z,14.02
2022-10-13T08:13:14.810Z,14.15
2022-10-13T08:15:42.959Z,14.25
2022-10-13T08:18:14.438Z,14.36
2022-10-13T08:20:43.876Z,14.39
2022-10-13T08:23:11.258Z,14.50
2022-10-13T08:25:42.217Z,14.60
2022-10-13T08:28:24.128Z,14.74
2022-10-13T08:30:51.831Z,14.80
2022-10-13T08:33:18.323Z,14.85
2022-10-13T08:35:45.008Z,14.93
2022-10-13T08:38:11.697Z,15.00
2022-10-13T08:40:39.190Z,15.02
2022-10-13T08:43:12.741Z,15.16
2022-10-13T08:45:41.743Z,15.18
2022-10-13T08:48:18.145Z,15.32
2022-10-13T08:50:47.571Z,15.33
2022-10-13T08:53:22.404Z,15.40
2022-10-13T08:55:52.088Z,15.48
2022-10-13T08:58:31.270Z,15.56
2022-10-13T09:01:06.349Z,15.60
2022-10-13T09:03:44.042Z,15.63
2022-10-13T09:06:15.419Z,15.64
2022-10-13T09:09:00.111Z,15.71
2022-10-13T09:11:33.844Z,15.73
2022-10-13T09:14:03.539Z,15.80
2022-10-13T09:16:41.312Z,15.87
2022-10-13T09:19:15.784Z,15.92
2022-10-13T09:21:42.425Z,15.90
2022-10-13T09:24:14.164Z,15.91
2022-10-13T09:26:41.281Z,15.95
2022-10-13T09:29:16.204Z,16.00
2022-10-13T09:31:42.634Z,16.00
2022-10-13T09:34:20.989Z,16.15
2022-10-13T09:37:00.609Z,16.22
2022-10-13T09:39:27.772Z,16.24
2022-10-13T09:42:19.479Z,16.32
2022-10-13T09:44:47.019Z,16.44
2022-10-13T09:47:26.533Z,16.50
2022-10-13T09:50:07.375Z,16.64
2022-10-13T09:52:34.646Z,16.61
2022-10-13T09:55:01.035Z,16.63
2022-10-13T09:57:46.342Z,16.66
2022-10-13T10:00:19.597Z,16.71
2022-10-13T10:02:51.335Z,16.63
2022-10-13T10:05:39.402Z,16.69
2022-10-13T10:09:03.815Z,16.67
2022-10-13T10:11:38.282Z,16.56
2022-10-13T10:14:36.116Z,16.51
2022-10-13T10:17:28.590Z,16.46
2022-10-13T10:20:01.124Z,16.39
2022-10-13T10:22:49.291Z,16.33
2022-10-13T10:25:29.907Z,16.28
2022-10-13T10:28:14.140Z,16.31
2022-10-13T10:30:48.680Z,16.36
2022-10-13T10:33:21.745Z,16.36
2022-10-13T10:36:27.522Z,16.40
2022-10-13T10:39:15.131Z,16.40
2022-10-13T10:42:02.882Z,16.36
2022-10-13T10:44:51.482Z,16.39
2022-10-13T10:47:30.189Z,16.40
2022-10-13T10:50:06.382Z,16.38
2022-10-13T10:53:04.884Z,16.52
2022-10-13T10:55:54.265Z,16.60
2022-10-13T10:58:37.684Z,16.65
2022-10-13T11:01:40.270Z,16.75
2022-10-13T11:04:33.228Z,16.88
2022-10-13T11:06:59.904Z,17.05
2022-10-13T11:09:41.337Z,17.40
2022-10-13T11:12:22.775Z,17.70
2022-10-13T11:14:55.244Z,18.05
2022-10-13T11:17:33.411Z,18.37
2022-10-13T11:20:00.570Z,18.57
2022-10-13T11:22:28.821Z,18.78
2022-10-13T11:24:58.041Z,18.90
2022-10-13T11:27:35.021Z,19.10
2022-10-13T11:30:03.095Z,19.22
2022-10-13T11:32:35.276Z,19.43
2022-10-13T11:35:04.602Z,19.64
2022-10-13T11:38:05.879Z,19.86
2022-10-13T11:40:35.144Z,19.97
2022-10-13T11:43:17.124Z,20.06
2022-10-13T11:46:19.741Z,20.23
2022-10-13T11:49:23.861Z,20.21
2022-10-13T11:52:05.521Z,20.13
2022-10-13T11:54:47.840Z,19.99
2022-10-13T11:57:26.152Z,19.90
2022-10-13T11:59:56.161Z,19.79
2022-10-13T12:02:26.012Z,19.78
2022-10-13T12:05:20.552Z,19.73
2022-10-13T12:07:49.063Z,19.59
2022-10-13T12:10:34.642Z,19.44
2022-10-13T12:13:02.639Z,19.37
2022-10-13T12:15:35.624Z,19.23
2022-10-13T12:18:03.465Z,19.17
2022-10-13T12:20:32.168Z,19.10
2022-10-13T12:22:58.716Z,19.06
2022-10-13T12:25:29.047Z,18.94
2022-10-13T12:27:59.195Z,18.98
2022-10-13T12:30:27.595Z,19.21
2022-10-13T12:32:57.385Z,19.06
2022-10-13T12:35:28.106Z,19.09
2022-10-13T12:37:57.001Z,19.06
2022-10-13T12:40:25.073Z,19.14
2022-10-13T12:42:51.967Z,19.09
2022-10-13T12:45:24.519Z,19.10
2022-10-13T12:47:53.794Z,19.10
2022-10-13T12:50:32.513Z,19.06
2022-10-13T12:53:09.152Z,19.11
2022-10-13T12:55:55.608Z,19.12
2022-10-13T12:58:35.968Z,19.06
2022-10-13T13:01:14.697Z,19.06
2022-10-13T13:03:43.204Z,19.02
2022-10-13T13:06:15.384Z,19.02
2022-10-13T13:08:43.427Z,18.95
2022-10-13T13:11:39.429Z,19.04
2022-10-13T13:14:45.087Z,19.01
2022-10-13T13:17:17.516Z,18.92
2022-10-13T13:19:55.732Z,18.82
2022-10-13T13:22:22.519Z,18.87
2022-10-13T13:24:52.589Z,18.87
2022-10-13T13:27:21.981Z,18.85
2022-10-13T13:29:48.850Z,18.77
2022-10-13T13:32:20.263Z,18.82
2022-10-13T13:34:47.281Z,18.78
2022-10-13T13:37:22.832Z,18.79
2022-10-13T13:39:49.521Z,18.79
2022-10-13T13:42:16.176Z,18.79
2022-10-13T13:44:42.579Z,18.68
2022-10-13T13:47:21.873Z,18.78
2022-10-13T13:49:50.712Z,18.74
2022-10-13T13:52:18.329Z,18.68
2022-10-13T13:54:45.150Z,18.63
2022-10-13T13:57:13.796Z,18.56
2022-10-13T13:59:40.493Z,18.58
2022-10-13T14:02:11.965Z,18.45
2022-10-13T14:04:38.444Z,18.45
2022-10-13T14:07:04.856Z,18.47
2022-10-13T14:09:31.361Z,18.47
2022-10-13T14:11:57.799Z,18.40
2022-10-13T14:14:24.373Z,18.38
2022-10-13T14:16:50.872Z,18.30
2022-10-13T14:19:17.280Z,18.25
2022-10-13T14:21:45.913Z,18.18
2022-10-13T14:24:15.174Z,18.31
2022-10-13T14:26:41.611Z,18.33
2022-10-13T14:29:08.296Z,18.37
2022-10-13T14:31:35.182Z,18.33
2022-10-13T14:34:01.537Z,18.33
2022-10-13T14:36:28.251Z,18.37
2022-10-13T14:38:55.067Z,18.29
2022-10-13T14:41:22.319Z,18.41
2022-10-13T14:43:55.308Z,18.39
2022-10-13T14:46:22.416Z,18.46
2022-10-13T14:48:49.457Z,18.39
2022-10-13T14:51:16.508Z,18.40
2022-10-13T14:53:45.148Z,18.47
2022-10-13T14:56:23.395Z,18.48
2022-10-13T14:58:52.071Z,18.46
2022-10-13T15:01:19.318Z,18.44
2022-10-13T15:03:46.303Z,18.41
2022-10-13T15:06:19.009Z,18.47
2022-10-13T15:08:46.150Z,18.38
2022-10-13T15:11:13.625Z,18.47
2022-10-13T15:13:41.049Z,18.46
2022-10-13T15:16:13.408Z,18.40
2022-10-13T15:18:39.897Z,18.36
2022-10-13T15:21:06.270Z,18.42
2022-10-13T15:23:32.673Z,18.39
2022-10-13T15:26:01.624Z,18.34
2022-10-13T15:28:30.458Z,18.35
2022-10-13T15:30:56.952Z,18.31
2022-10-13T15:33:23.358Z,18.19
2022-10-13T15:35:50.824Z,18.21
2022-10-13T15:38:18.992Z,18.19
2022-10-13T15:40:46.165Z,18.14
2022-10-13T15:43:12.895Z,18.20
2022-10-13T15:45:40.152Z,18.19
2022-10-13T15:48:07.908Z,18.16
2022-10-13T15:50:38.353Z,18.10
2022-10-13T15:53:04.819Z,18.11
2022-10-13T15:55:31.907Z,18.05
2022-10-13T15:57:58.362Z,18.01
2022-10-13T16:00:24.951Z,17.95
2022-10-13T16:02:52.031Z,17.91
2022-10-13T16:05:19.237Z,17.82
2022-10-13T16:07:45.794Z,17.80
2022-10-13T16:10:13.987Z,17.78
2022-10-13T16:12:45.438Z,17.75
2022-10-13T16:15:14.990Z,17.74
2022-10-13T16:17:41.757Z,17.72
2022-10-13T16:20:09.055Z,17.66
2022-10-13T16:22:35.500Z,17.65
2022-10-13T16:25:02.047Z,17.64
2022-10-13T16:27:30.918Z,17.55
2022-10-13T16:29:57.343Z,17.53
2022-10-13T16:32:25.743Z,17.56
2022-10-13T16:34:52.185Z,17.55
2022-10-13T16:37:19.155Z,17.52
2022-10-13T16:39:51.241Z,17.39
2022-10-13T16:42:18.249Z,17.47
2022-10-13T16:44:47.750Z,17.40
2022-10-13T16:47:18.217Z,17.40
2022-10-13T16:49:45.088Z,17.41
2022-10-13T16:52:11.484Z,17.39
2022-10-13T16:54:37.996Z,17.36
2022-10-13T16:57:04.627Z,17.29
2022-10-13T16:59:31.055Z,17.34
2022-10-13T17:01:59.163Z,17.25
2022-10-13T17:04:25.902Z,17.33
2022-10-13T17:06:52.292Z,17.28
2022-10-13T17:09:18.961Z,17.26
2022-10-13T17:11:45.425Z,17.23
2022-10-13T17:14:11.901Z,17.20
2022-10-13T17:16:38.383Z,17.20
2022-10-13T17:19:04.995Z,17.11
2022-10-13T17:21:31.428Z,17.09
2022-10-13T17:23:57.944Z,17.09
2022-10-13T17:26:24.397Z,17.02
2022-10-13T17:28:51.164Z,16.97
2022-10-13T17:31:20.761Z,16.93
2022-10-13T17:33:48.341Z,16.77
2022-10-13T17:36:16.381Z,16.81
2022-10-13T17:38:44.026Z,16.73
2022-10-13T17:41:11.167Z,16.65
2022-10-13T17:43:38.763Z,16.60
2022-10-13T17:46:36.935Z,16.49
2022-10-13T17:49:03.651Z,16.44
2022-10-13T17:51:30.056Z,16.40
2022-10-13T17:53:58.735Z,16.27
2022-10-13T17:56:25.530Z,16.26
2022-10-13T17:58:52.600Z,16.22
2022-10-13T18:01:21.089Z,16.17
2022-10-13T18:03:50.581Z,16.10
2022-10-13T18:06:18.469Z,16.04
2022-10-13T18:08:44.938Z,16.00
2022-10-13T18:11:14.998Z,15.94
2022-10-13T18:13:42.391Z,15.92
2022-10-13T18:16:22.973Z,15.87
2022-10-13T18:18:50.678Z,15.87
2022-10-13T18:21:19.843Z,15.85
2022-10-13T18:23:46.545Z,15.73
2022-10-13T18:26:16.277Z,15.82
2022-10-13T18:28:44.535Z,15.78
2022-10-13T18:31:13.898Z,15.76
2022-10-13T18:33:41.683Z,15.79
2022-10-13T18:36:28.978Z,15.80
2022-10-13T18:39:00.598Z,15.76
2022-10-13T18:41:26.995Z,15.68
2022-10-13T18:43:55.121Z,15.70
2022-10-13T18:46:21.621Z,15.69
2022-10-13T18:48:48.051Z,15.66
2022-10-13T18:51:15.833Z,15.65
2022-10-13T18:53:44.164Z,15.69
2022-10-13T18:56:22.526Z,15.66
2022-10-13T18:58:59.175Z,15.67
2022-10-13T19:01:27.935Z,15.64
2022-10-13T19:03:54.882Z,15.63
2022-10-13T19:06:26.599Z,15.60
2022-10-13T19:09:07.169Z,15.56
2022-10-13T19:11:34.573Z,15.57
2022-10-13T19:14:02.204Z,15.53
2022-10-13T19:16:30.678Z,15.59
2022-10-13T19:18:57.243Z,15.59
2022-10-13T19:21:23.770Z,15.52
2022-10-13T19:23:50.501Z,15.59
2022-10-13T19:26:26.437Z,15.60
2022-10-13T19:28:55.024Z,15.53
2022-10-13T19:31:23.377Z,15.61
2022-10-13T19:33:50.585Z,15.60
2022-10-13T19:36:33.021Z,15.65
2022-10-13T19:39:00.197Z,15.60
2022-10-13T19:41:31.535Z,15.64
2022-10-13T19:43:58.928Z,15.60
2022-10-13T19:46:26.581Z,15.54
2022-10-13T19:48:53.019Z,15.59
2022-10-13T19:51:19.579Z,15.59
2022-10-13T19:53:46.333Z,15.58
2022-10-13T19:56:22.031Z,15.63
2022-10-13T19:58:48.621Z,15.55
2022-10-13T20:01:15.053Z,15.58
2022-10-13T20:03:41.725Z,15.59
2022-10-13T20:06:09.249Z,15.58
2022-10-13T20:08:35.616Z,15.51
2022-10-13T20:11:09.541Z,15.54
2022-10-13T20:13:36.726Z,15.52
2022-10-13T20:16:08.111Z,15.57
2022-10-13T20:18:35.672Z,15.55
2022-10-13T20:21:06.822Z,15.52
2022-10-13T20:23:34.505Z,15.48
2022-10-13T20:26:09.406Z,15.51
2022-10-13T20:28:42.736Z,15.51
2022-10-13T20:31:11.573Z,15.55
2022-10-13T20:33:37.951Z,15.52
2022-10-13T20:36:07.560Z,15.52
2022-10-13T20:38:37.611Z,15.56
2022-10-13T20:41:17.793Z,15.56
2022-10-13T20:43:44.545Z,15.65
2022-10-13T20:46:11.774Z,15.55
2022-10-13T20:49:05.543Z,15.41
2022-10-13T20:51:26.967Z,15.47
2022-10-13T20:53:54.209Z,15.43
2022-10-13T20:56:23.187Z,15.41
2022-10-13T20:58:50.164Z,15.45
2022-10-13T21:01:17.781Z,15.41
2022-10-13T21:03:44.763Z,15.36
2022-10-13T21:06:13.351Z,15.42
2022-10-13T21:08:40.407Z,15.40
2022-10-13T21:11:12.876Z,15.43
2022-10-13T21:13:41.011Z,15.41
2022-10-13T21:16:13.359Z,15.34
2022-10-13T21:18:39.737Z,15.38
2022-10-13T21:21:11.776Z,15.40
2022-10-13T21:23:38.422Z,15.39
2022-10-13T21:26:07.437Z,15.39
2022-10-13T21:28:37.023Z,15.33
2022-10-13T21:31:06.742Z,15.34
2022-10-13T21:33:35.722Z,15.36
2022-10-13T21:36:15.752Z,15.37
2022-10-13T21:38:43.720Z,15.34
2022-10-13T21:41:12.201Z,15.36
2022-10-13T21:43:38.866Z,15.30
2022-10-13T21:46:08.886Z,15.34
2022-10-13T21:48:35.738Z,15.36
2022-10-13T21:51:21.427Z,15.36
2022-10-13T21:53:53.474Z,15.29
2022-10-13T21:56:21.348Z,15.34
2022-10-13T21:58:48.972Z,15.31
2022-10-13T22:01:16.829Z,15.29
2022-10-13T22:03:43.699Z,15.28
2022-10-13T22:06:18.469Z,15.32
2022-10-13T22:08:46.574Z,15.27
2022-10-13T22:11:13.774Z,15.32
2022-10-13T22:13:40.425Z,15.31
2022-10-13T22:16:08.361Z,15.30
2022-10-13T22:18:34.873Z,15.31
2022-10-13T22:21:03.385Z,15.29
2022-10-13T22:23:30.119Z,15.29
2022-10-13T22:25:56.587Z,15.30
2022-10-13T22:28:23.990Z,15.29
2022-10-13T22:30:51.741Z,15.23
2022-10-13T22:33:21.047Z,15.27
2022-10-13T22:35:47.717Z,15.29
2022-10-13T22:38:14.281Z,15.27
2022-10-13T22:40:41.658Z,15.29
2022-10-13T22:43:08.459Z,15.21
2022-10-13T22:45:34.904Z,15.28
2022-10-13T22:48:02.145Z,15.22
2022-10-13T22:50:28.902Z,15.27
2022-10-13T22:52:55.328Z,15.24
2022-10-13T22:55:21.889Z,15.30
2022-10-13T22:57:48.282Z,15.31
2022-10-13T23:00:15.213Z,15.31
2022-10-13T23:02:41.575Z,15.28
2022-10-13T23:05:08.397Z,15.25
2022-10-13T23:07:34.847Z,15.27
2022-10-13T23:10:01.298Z,15.30
2022-10-13T23:12:27.687Z,15.31
2022-10-13T23:14:54.202Z,15.26
2022-10-13T23:17:20.889Z,15.30
2022-10-13T23:19:47.627Z,15.27
2022-10-13T23:22:14.073Z,15.30
2022-10-13T23:24:40.674Z,15.25
2022-10-13T23:27:07.202Z,15.26
2022-10-13T23:29:33.874Z,15.29
2022-10-13T23:32:00.302Z,15.28
2022-10-13T23:34:29.267Z,15.27
2022-10-13T23:36:55.853Z,15.21
2022-10-13T23:39:22.311Z,15.28
2022-10-13T23:41:49.093Z,15.29
2022-10-13T23:44:15.451Z,15.27
2022-10-13T23:46:41.899Z,15.27
2022-10-13T23:49:11.660Z,15.28
2022-10-13T23:51:38.005Z,15.26
2022-10-13T23:54:04.369Z,15.29
2022-10-13T23:56:30.763Z,15.25
2022-10-13T23:58:57.256Z,15.20
